Terminal Aerodrome Forecast
Issued by NWS Tampa Bay Area, FL

Home | Current Version | Previous Version | Text Only | Print | Product List | Glossary On
Versions: 1 2 3 4 5 6 7 8 9 10 11 12 13 14 15 16 17 18 19 20 21 22 23 24 25
000
FTUS42 KTBW 191700
TAFFMY
TAF
KFMY 191734Z 1918/2018 29013G20KT P6SM BKN030 BKN035
     FM191900 30015G20KT P6SM FEW025 SCT035
     FM200200 32008KT P6SM FEW035 SCT250
     FM200600 33007KT P6SM SCT250=

USA.gov is the U.S. government's official web portal to all federal, state and local government web resources and services.